Time;durP1;ratioP1;P1;durP2;ratioP2;P2;SDS_P1;SDS_P2;PMS_P1;PMS_P2;Temp;Humidity;BMP_temperature;BMP_pressure;BME280_temperature;BME280_humidity;BME280_pressure;Samples;Min_cycle;Max_cycle;Signal;HPM_P1;HPM_P2
2021/03/09 00:03:50;;;;;;;2.13;1.43;;;;;;;;;;10295649;28;20033;-65
2021/03/09 00:08:48;;;;;;;1.53;1.20;;;;;;;;;;10289493;28;20034;-66
2021/03/09 00:13:45;;;;;;;4.57;2.00;;;;;;;;;;10312148;28;20110;-66
2021/03/09 00:18:42;;;;;;;2.93;1.70;;;;;;;;;;10284190;28;20029;-65
2021/03/09 00:23:40;;;;;;;3.20;2.23;;;;;;;;;;10279088;28;20442;-64
2021/03/09 00:28:37;;;;;;;6.10;2.13;;;;;;;;;;10292774;28;20064;-64
2021/03/09 00:33:34;;;;;;;4.20;2.07;;;;;;;;;;10294328;28;20505;-64
2021/03/09 00:38:32;;;;;;;8.20;2.53;;;;;;;;;;10293254;28;20033;-64
2021/03/09 00:43:29;;;;;;;7.90;2.63;;;;;;;;;;10278762;28;20034;-64
2021/03/09 00:48:35;;;;;;;2.07;1.63;;;;;;;;;;10299245;28;20040;-64
2021/03/09 00:53:32;;;;;;;6.63;2.55;;;;;;;;;;10289069;28;20064;-63
2021/03/09 00:58:30;;;;;;;4.90;2.40;;;;;;;;;;10284296;28;20044;-63
2021/03/09 01:03:27;;;;;;;5.17;1.43;;;;;;;;;;10282355;28;20497;-63
2021/03/09 01:08:24;;;;;;;3.07;1.90;;;;;;;;;;10291372;28;20034;-63
2021/03/09 01:13:22;;;;;;;10.50;3.03;;;;;;;;;;10286632;28;20029;-65
2021/03/09 01:18:19;;;;;;;5.50;2.60;;;;;;;;;;10280728;28;20124;-64
2021/03/09 01:23:17;;;;;;;5.07;2.93;;;;;;;;;;10291683;28;20083;-65
2021/03/09 01:28:14;;;;;;;3.47;2.47;;;;;;;;;;10282099;28;20087;-65
2021/03/09 01:33:12;;;;;;;12.47;2.53;;;;;;;;;;10286018;28;20033;-65
2021/03/09 01:38:09;;;;;;;4.83;3.10;;;;;;;;;;10287815;28;20033;-65
2021/03/09 01:43:07;;;;;;;4.17;2.10;;;;;;;;;;10277771;28;20133;-64
2021/03/09 01:48:05;;;;;;;6.73;3.33;;;;;;;;;;10291704;28;20038;-64
2021/03/09 01:53:06;;;;;;;6.55;2.35;;;;;;;;;;10281910;28;20072;-65
2021/03/09 01:58:10;;;;;;;2.85;2.33;;;;;;;;;;10283449;28;20048;-65
2021/03/09 02:03:08;;;;;;;7.35;1.88;;;;;;;;;;10292668;28;20283;-65
2021/03/09 02:08:06;;;;;;;4.53;2.20;;;;;;;;;;10289932;28;20069;-64
2021/03/09 02:13:18;;;;;;;5.67;2.47;;;;;;;;;;10291280;28;20045;-65
2021/03/09 02:18:34;;;;;;;9.10;4.20;;;;;;;;;;10288847;28;20272;-64
2021/03/09 02:23:50;;;;;;;8.80;3.60;;;;;;;;;;10286466;28;20142;-64
2021/03/09 02:28:59;;;;;;;6.20;2.00;;;;;;;;;;10266249;28;20048;-64
2021/03/09 02:34:01;;;;;;;6.15;3.97;;;;;;;;;;10288631;28;20073;-65
2021/03/09 02:39:00;;;;;;;7.38;3.20;;;;;;;;;;10287920;28;20034;-64
2021/03/09 02:43:58;;;;;;;6.40;4.20;;;;;;;;;;10283336;28;20065;-64
2021/03/09 02:48:56;;;;;;;6.67;3.00;;;;;;;;;;10290373;28;20038;-65
2021/03/09 02:53:55;;;;;;;10.27;2.75;;;;;;;;;;10283136;28;20092;-65
2021/03/09 02:58:53;;;;;;;5.50;3.47;;;;;;;;;;10287224;28;20029;-65
2021/03/09 03:03:52;;;;;;;1.48;1.35;;;;;;;;;;10289339;28;20037;-65
2021/03/09 03:08:49;;;;;;;;;;;;;;;;;;10290608;28;20037;-67
2021/03/09 03:13:48;;;;;;;12.07;3.65;;;;;;;;;;10291909;28;20426;-65
2021/03/09 03:18:46;;;;;;;5.07;2.95;;;;;;;;;;10274676;28;20029;-65
2021/03/09 03:23:44;;;;;;;6.53;3.60;;;;;;;;;;10277730;28;20080;-65
2021/03/09 03:28:45;;;;;;;7.63;3.40;;;;;;;;;;10273927;28;20156;-64
2021/03/09 03:33:43;;;;;;;4.68;2.60;;;;;;;;;;10286676;28;20033;-64
2021/03/09 03:38:41;;;;;;;6.90;2.60;;;;;;;;;;10286655;28;20564;-65
2021/03/09 03:43:38;;;;;;;3.38;2.42;;;;;;;;;;10281105;28;20045;-65
2021/03/09 03:48:36;;;;;;;5.47;2.80;;;;;;;;;;10291715;28;20030;-64
2021/03/09 03:53:56;;;;;;;11.85;2.25;;;;;;;;;;10279672;28;20033;-63
2021/03/09 03:58:53;;;;;;;;;;;;;;;;;;10283250;28;20494;-65
2021/03/09 04:03:52;;;;;;;6.95;3.08;;;;;;;;;;10287169;28;19971;-65
2021/03/09 04:08:49;;;;;;;5.80;2.75;;;;;;;;;;10278507;28;20069;-64
2021/03/09 04:13:47;;;;;;;3.40;2.47;;;;;;;;;;10281216;28;20129;-64
2021/03/09 04:18:46;;;;;;;6.13;2.93;;;;;;;;;;10282516;28;20526;-65
2021/03/09 04:23:43;;;;;;;6.82;3.03;;;;;;;;;;10275140;28;20038;-65
2021/03/09 04:28:41;;;;;;;6.20;2.97;;;;;;;;;;10276510;28;20033;-65
2021/03/09 04:33:38;;;;;;;4.67;2.90;;;;;;;;;;10273388;28;20037;-65
2021/03/09 04:38:36;;;;;;;3.50;2.17;;;;;;;;;;10285273;28;20071;-65
2021/03/09 04:43:34;;;;;;;8.07;2.37;;;;;;;;;;10287758;28;20376;-65
2021/03/09 04:48:32;;;;;;;3.45;2.28;;;;;;;;;;10290567;28;20033;-64
2021/03/09 04:53:30;;;;;;;2.03;1.50;;;;;;;;;;10278625;28;20037;-64
2021/03/09 04:58:27;;;;;;;2.65;1.90;;;;;;;;;;10291053;28;20052;-65
2021/03/09 05:03:24;;;;;;;5.77;3.10;;;;;;;;;;10299739;28;20033;-65
2021/03/09 05:08:22;;;;;;;1.93;1.33;;;;;;;;;;10273973;28;20120;-65
2021/03/09 05:13:19;;;;;;;2.47;2.00;;;;;;;;;;10301705;28;20048;-65
2021/03/09 05:18:17;;;;;;;5.67;2.30;;;;;;;;;;10285289;28;20138;-65
2021/03/09 05:23:14;;;;;;;4.70;2.70;;;;;;;;;;10283100;28;20110;-65
2021/03/09 05:28:12;;;;;;;1.90;1.67;;;;;;;;;;10269041;28;20053;-65
2021/03/09 05:33:09;;;;;;;4.57;1.90;;;;;;;;;;10274192;28;20128;-66
2021/03/09 05:38:06;;;;;;;3.43;2.43;;;;;;;;;;10283386;28;20030;-66
2021/03/09 05:43:04;;;;;;;3.57;2.43;;;;;;;;;;10272704;28;20046;-67
2021/03/09 05:48:02;;;;;;;5.90;2.33;;;;;;;;;;10274866;28;20119;-65
2021/03/09 05:52:59;;;;;;;4.80;2.60;;;;;;;;;;10264281;28;20470;-66
2021/03/09 05:57:57;;;;;;;4.23;2.70;;;;;;;;;;10285722;28;20034;-65
2021/03/09 06:02:54;;;;;;;4.93;2.50;;;;;;;;;;10269614;28;20037;-65
2021/03/09 06:07:52;;;;;;;3.77;2.47;;;;;;;;;;10282625;28;20518;-65
2021/03/09 06:12:50;;;;;;;4.47;2.63;;;;;;;;;;10281798;28;20037;-64
2021/03/09 06:17:55;;;;;;;4.18;2.78;;;;;;;;;;10284370;28;20029;-66
2021/03/09 06:22:55;;;;;;;1.88;1.77;;;;;;;;;;10278180;28;20036;-66
2021/03/09 06:27:53;;;;;;;4.93;3.33;;;;;;;;;;10284869;28;20577;-66
2021/03/09 06:32:51;;;;;;;5.68;3.55;;;;;;;;;;10262847;28;20033;-66
2021/03/09 06:37:48;;;;;;;5.80;3.72;;;;;;;;;;10255707;28;20034;-67
2021/03/09 06:42:46;;;;;;;3.97;3.03;;;;;;;;;;10275520;28;20034;-65
2021/03/09 06:47:44;;;;;;;4.97;3.30;;;;;;;;;;10299975;28;20044;-66
2021/03/09 06:52:43;;;;;;;5.00;3.08;;;;;;;;;;10286031;28;20040;-65
2021/03/09 06:57:40;;;;;;;4.57;3.65;;;;;;;;;;10277214;28;20049;-65
2021/03/09 07:02:38;;;;;;;4.50;2.65;;;;;;;;;;10279240;28;20092;-66
2021/03/09 07:07:36;;;;;;;7.33;3.47;;;;;;;;;;10285178;28;20049;-67
2021/03/09 07:12:36;;;;;;;6.90;3.50;;;;;;;;;;10274974;28;20038;-66
2021/03/09 07:17:36;;;;;;;4.35;3.05;;;;;;;;;;10282999;28;20415;-65
2021/03/09 07:22:34;;;;;;;6.07;3.10;;;;;;;;;;10298667;28;20042;-65
2021/03/09 07:27:41;;;;;;;6.60;3.47;;;;;;;;;;10277075;28;20522;-67
2021/03/09 07:32:39;;;;;;;5.28;3.55;;;;;;;;;;10254863;28;20041;-67
2021/03/09 07:37:38;;;;;;;4.30;2.78;;;;;;;;;;10275182;28;20128;-66
2021/03/09 07:42:36;;;;;;;7.10;3.30;;;;;;;;;;10264735;28;20143;-67
2021/03/09 07:47:34;;;;;;;7.63;4.23;;;;;;;;;;10245379;28;20103;-67
2021/03/09 07:52:32;;;;;;;8.93;3.58;;;;;;;;;;10280172;28;20045;-67
2021/03/09 07:57:29;;;;;;;5.37;3.40;;;;;;;;;;10259956;28;20529;-66
2021/03/09 08:02:46;;;;;;;2.50;1.97;;;;;;;;;;10286023;28;20179;-67
2021/03/09 08:07:53;;;;;;;5.22;3.20;;;;;;;;;;10275400;28;20448;-67
2021/03/09 08:12:51;;;;;;;6.47;3.73;;;;;;;;;;10273070;28;20041;-67
2021/03/09 08:17:48;;;;;;;5.73;3.63;;;;;;;;;;10272405;28;20056;-66
2021/03/09 08:22:46;;;;;;;3.70;2.90;;;;;;;;;;10282628;28;20136;-66
2021/03/09 08:27:43;;;;;;;3.43;2.50;;;;;;;;;;10286957;28;20045;-66
2021/03/09 08:32:40;;;;;;;7.67;3.30;;;;;;;;;;10290000;28;20041;-66
2021/03/09 08:38:00;;;;;;;6.87;3.00;;;;;;;;;;10292038;28;20052;-66
2021/03/09 08:42:58;;;;;;;5.40;3.08;;;;;;;;;;10283218;28;20037;-65
2021/03/09 08:47:56;;;;;;;6.30;3.03;;;;;;;;;;10284010;28;20414;-66
2021/03/09 08:52:53;;;;;;;6.10;2.25;;;;;;;;;;10263742;28;20415;-66
2021/03/09 08:57:51;;;;;;;4.87;2.90;;;;;;;;;;10279402;28;20030;-66
2021/03/09 09:02:49;;;;;;;4.53;3.13;;;;;;;;;;10295324;28;20167;-64
2021/03/09 09:07:46;;;;;;;3.13;2.38;;;;;;;;;;10266955;28;20065;-65
2021/03/09 09:12:45;;;;;;;3.67;2.67;;;;;;;;;;10286104;28;20108;-64
2021/03/09 09:17:47;;;;;;;5.95;3.20;;;;;;;;;;10283177;28;20041;-64
2021/03/09 09:22:44;;;;;;;4.95;2.75;;;;;;;;;;10284587;28;20507;-64
2021/03/09 09:27:42;;;;;;;3.57;2.63;;;;;;;;;;10277297;28;20111;-63
2021/03/09 09:32:48;;;;;;;3.83;2.63;;;;;;;;;;10278908;28;20352;-63
2021/03/09 09:37:53;;;;;;;4.05;2.85;;;;;;;;;;10282054;28;20403;-63
2021/03/09 09:42:54;;;;;;;5.20;2.80;;;;;;;;;;10273231;28;20038;-63
2021/03/09 09:47:52;;;;;;;5.78;2.85;;;;;;;;;;10267871;28;20034;-61
2021/03/09 09:52:59;;;;;;;4.88;3.40;;;;;;;;;;10279601;28;20522;-62
2021/03/09 09:57:58;;;;;;;4.30;3.45;;;;;;;;;;10287486;28;20033;-61
2021/03/09 10:03:09;;;;;;;7.32;3.88;;;;;;;;;;10283659;28;20051;-64
2021/03/09 10:08:08;;;;;;;3.33;2.22;;;;;;;;;;10277307;28;20129;-62
2021/03/09 10:13:18;;;;;;;4.53;3.50;;;;;;;;;;10275923;28;20061;-62
2021/03/09 10:18:23;;;;;;;6.10;3.97;;;;;;;;;;10273311;28;20384;-62
2021/03/09 10:23:20;;;;;;;7.15;4.45;;;;;;;;;;10273069;28;20030;-63
2021/03/09 10:28:23;;;;;;;12.57;4.83;;;;;;;;;;10298602;28;20037;-63
2021/03/09 10:33:21;;;;;;;5.43;2.80;;;;;;;;;;10267769;28;20049;-65
2021/03/09 10:38:21;;;;;;;3.70;2.70;;;;;;;;;;10284209;28;20034;-64
2021/03/09 10:43:37;;;;;;;4.28;3.05;;;;;;;;;;10276824;28;20042;-63
2021/03/09 10:48:35;;;;;;;3.38;2.10;;;;;;;;;;10282027;28;20107;-63
2021/03/09 10:53:32;;;;;;;5.37;3.77;;;;;;;;;;10276469;28;20038;-62
2021/03/09 10:58:30;;;;;;;6.63;3.50;;;;;;;;;;10269014;28;20982;-61
2021/03/09 11:03:27;;;;;;;12.10;4.47;;;;;;;;;;10284086;28;20132;-62
2021/03/09 11:08:25;;;;;;;9.10;4.43;;;;;;;;;;10287831;28;20507;-60
2021/03/09 11:13:23;;;;;;;7.60;4.03;;;;;;;;;;10274787;28;20053;-59
2021/03/09 11:18:20;;;;;;;5.03;2.90;;;;;;;;;;10298510;28;20033;-62
2021/03/09 11:23:17;;;;;;;5.77;3.40;;;;;;;;;;10279185;28;20038;-58
2021/03/09 11:28:15;;;;;;;5.07;3.27;;;;;;;;;;10282032;28;20522;-61
2021/03/09 11:33:12;;;;;;;5.23;3.70;;;;;;;;;;10286137;28;20124;-62
2021/03/09 11:38:10;;;;;;;9.00;3.73;;;;;;;;;;10269909;28;20029;-61
2021/03/09 11:43:07;;;;;;;7.50;3.37;;;;;;;;;;10281760;28;20132;-63
2021/03/09 11:48:05;;;;;;;6.03;3.73;;;;;;;;;;10304247;28;20029;-61
2021/03/09 11:53:02;;;;;;;5.37;2.70;;;;;;;;;;10283671;28;20411;-62
2021/03/09 11:58:00;;;;;;;6.57;3.53;;;;;;;;;;10297950;28;20042;-64
2021/03/09 12:02:57;;;;;;;13.47;4.10;;;;;;;;;;10326245;28;20068;-62
2021/03/09 12:07:54;;;;;;;10.80;4.43;;;;;;;;;;10288512;28;20025;-63
2021/03/09 12:12:52;;;;;;;8.97;5.43;;;;;;;;;;10282514;28;20025;-63
2021/03/09 12:17:49;;;;;;;9.83;5.57;;;;;;;;;;10258898;28;20164;-62
2021/03/09 12:22:47;;;;;;;5.53;2.40;;;;;;;;;;10260707;28;20057;-61
2021/03/09 12:27:44;;;;;;;8.40;4.87;;;;;;;;;;10282227;28;20044;-60
2021/03/09 12:32:43;;;;;;;8.20;3.67;;;;;;;;;;10283162;28;20372;-60
2021/03/09 12:37:40;;;;;;;8.32;4.50;;;;;;;;;;10299175;28;20049;-60
2021/03/09 12:42:38;;;;;;;10.50;5.43;;;;;;;;;;10282288;28;20509;-64
2021/03/09 12:47:35;;;;;;;7.37;4.43;;;;;;;;;;10284493;28;20232;-60
2021/03/09 12:52:33;;;;;;;4.97;2.50;;;;;;;;;;10283623;28;20495;-63
2021/03/09 12:57:30;;;;;;;15.20;6.63;;;;;;;;;;10266555;28;20038;-66
2021/03/09 13:02:32;;;;;;;10.88;5.80;;;;;;;;;;10286580;28;20068;-63
2021/03/09 13:07:30;;;;;;;18.77;5.97;;;;;;;;;;10287151;28;20526;-61
2021/03/09 13:12:27;;;;;;;13.70;5.50;;;;;;;;;;10296225;28;20287;-63
2021/03/09 13:17:25;;;;;;;12.13;5.50;;;;;;;;;;10288826;28;20042;-63
2021/03/09 13:22:22;;;;;;;15.20;4.20;;;;;;;;;;10283863;28;20045;-64
2021/03/09 13:27:20;;;;;;;12.00;5.23;;;;;;;;;;10287375;28;20209;-64
2021/03/09 13:32:17;;;;;;;10.60;3.20;;;;;;;;;;10286549;28;20038;-62
2021/03/09 13:37:15;;;;;;;8.23;3.97;;;;;;;;;;10292924;28;20124;-63
2021/03/09 13:42:13;;;;;;;8.30;4.72;;;;;;;;;;10278155;28;20443;-59
2021/03/09 13:47:10;;;;;;;7.97;4.00;;;;;;;;;;10285505;28;20037;-62
2021/03/09 13:52:08;;;;;;;5.97;3.67;;;;;;;;;;10281293;28;20649;-63
2021/03/09 13:57:05;;;;;;;4.53;2.53;;;;;;;;;;10294580;28;20037;-61
2021/03/09 14:02:02;;;;;;;12.07;5.63;;;;;;;;;;10283279;28;20034;-58
2021/03/09 14:07:00;;;;;;;10.13;5.60;;;;;;;;;;10285942;28;20026;-59
2021/03/09 14:11:57;;;;;;;6.97;4.10;;;;;;;;;;10288005;28;20037;-61
2021/03/09 14:16:55;;;;;;;5.00;2.53;;;;;;;;;;10272986;28;20037;-62
2021/03/09 14:21:55;;;;;;;8.87;4.43;;;;;;;;;;10276960;28;20622;-64
2021/03/09 14:26:52;;;;;;;10.73;5.78;;;;;;;;;;10281401;28;20026;-61
2021/03/09 14:31:50;;;;;;;8.77;4.40;;;;;;;;;;10267755;28;20041;-61
2021/03/09 14:36:47;;;;;;;9.33;4.97;;;;;;;;;;10279719;28;20034;-65
2021/03/09 14:41:45;;;;;;;6.77;4.27;;;;;;;;;;10280445;28;20053;-60
2021/03/09 14:46:42;;;;;;;9.63;3.97;;;;;;;;;;10302479;28;20040;-58
2021/03/09 14:51:40;;;;;;;9.17;5.13;;;;;;;;;;10285353;28;21591;-61
2021/03/09 14:56:37;;;;;;;6.57;2.83;;;;;;;;;;10281475;28;20034;-63
2021/03/09 15:01:34;;;;;;;11.57;5.27;;;;;;;;;;10277096;28;20134;-62
2021/03/09 15:06:32;;;;;;;15.70;5.50;;;;;;;;;;10278019;28;20029;-56
2021/03/09 15:11:29;;;;;;;8.33;3.63;;;;;;;;;;10274470;28;20040;-62
2021/03/09 15:16:27;;;;;;;3.53;2.37;;;;;;;;;;10263339;28;20503;-63
2021/03/09 15:21:24;;;;;;;10.50;4.90;;;;;;;;;;10259571;28;20300;-65
2021/03/09 15:26:21;;;;;;;12.77;5.83;;;;;;;;;;10262794;28;20037;-63
2021/03/09 15:31:19;;;;;;;8.77;5.10;;;;;;;;;;10273974;28;20049;-63
2021/03/09 15:36:17;;;;;;;8.23;3.88;;;;;;;;;;10283325;28;20033;-63
2021/03/09 15:41:14;;;;;;;12.00;6.23;;;;;;;;;;10273640;28;20041;-62
2021/03/09 15:46:12;;;;;;;12.63;5.60;;;;;;;;;;10276534;28;20124;-67
2021/03/09 15:51:10;;;;;;;9.02;3.95;;;;;;;;;;10285858;28;20571;-62
2021/03/09 15:56:07;;;;;;;9.47;5.20;;;;;;;;;;10268099;28;20048;-62
2021/03/09 16:01:05;;;;;;;6.50;3.37;;;;;;;;;;10264719;28;20384;-63
2021/03/09 16:06:02;;;;;;;7.70;3.10;;;;;;;;;;10258279;28;20038;-65
2021/03/09 16:10:59;;;;;;;4.27;3.10;;;;;;;;;;10290990;28;20625;-65
2021/03/09 16:15:57;;;;;;;12.77;3.67;;;;;;;;;;10279855;28;20048;-64
2021/03/09 16:20:54;;;;;;;6.47;4.23;;;;;;;;;;10273121;28;21430;-64
2021/03/09 16:25:52;;;;;;;11.40;4.70;;;;;;;;;;10275647;28;20567;-65
2021/03/09 16:30:49;;;;;;;5.57;3.33;;;;;;;;;;10256714;28;20030;-64
2021/03/09 16:35:46;;;;;;;11.60;5.23;;;;;;;;;;10262413;28;20048;-65
2021/03/09 16:40:44;;;;;;;4.80;3.07;;;;;;;;;;10261485;28;20456;-65
2021/03/09 16:45:41;;;;;;;6.93;4.33;;;;;;;;;;10272279;28;20538;-64
2021/03/09 16:50:39;;;;;;;5.57;3.63;;;;;;;;;;10264920;28;20366;-65
2021/03/09 16:55:36;;;;;;;8.53;4.10;;;;;;;;;;10284247;28;20037;-65
2021/03/09 17:00:34;;;;;;;2.30;2.10;;;;;;;;;;10283061;28;20399;-65
2021/03/09 17:05:31;;;;;;;7.80;3.73;;;;;;;;;;10270268;28;20511;-64
2021/03/09 17:10:31;;;;;;;10.87;5.10;;;;;;;;;;10280980;28;20038;-64
2021/03/09 17:15:29;;;;;;;8.55;4.88;;;;;;;;;;10283275;28;20049;-64
2021/03/09 17:20:27;;;;;;;8.23;4.57;;;;;;;;;;10282861;28;20859;-64
2021/03/09 17:25:24;;;;;;;11.50;4.03;;;;;;;;;;10290867;28;20423;-63
2021/03/09 17:30:22;;;;;;;7.10;3.77;;;;;;;;;;10282629;28;20033;-65
2021/03/09 17:35:19;;;;;;;27.03;8.27;;;;;;;;;;10274051;28;20099;-64
2021/03/09 17:40:17;;;;;;;12.40;5.80;;;;;;;;;;10281616;28;20029;-64
2021/03/09 17:45:14;;;;;;;11.13;5.87;;;;;;;;;;10290241;28;20026;-64
2021/03/09 17:50:13;;;;;;;17.97;5.63;;;;;;;;;;10260694;28;20044;-64
2021/03/09 17:55:11;;;;;;;9.18;4.30;;;;;;;;;;10284221;28;20037;-64
2021/03/09 18:00:09;;;;;;;8.30;4.30;;;;;;;;;;10279552;28;20487;-66
2021/03/09 18:05:12;;;;;;;9.07;3.78;;;;;;;;;;10280414;28;20448;-65
2021/03/09 18:10:09;;;;;;;7.03;4.40;;;;;;;;;;10288296;28;20104;-64
2021/03/09 18:15:08;;;;;;;14.25;6.57;;;;;;;;;;10286328;28;20051;-67
2021/03/09 18:20:06;;;;;;;14.80;5.73;;;;;;;;;;10258388;28;20538;-65
2021/03/09 18:25:04;;;;;;;10.20;5.53;;;;;;;;;;10280497;28;20025;-66
2021/03/09 18:30:02;;;;;;;;;;;;;;;;;;10287483;28;20192;-66
2021/03/09 18:34:59;;;;;;;11.25;7.20;;;;;;;;;;10229790;28;20027;-67
2021/03/09 18:39:58;;;;;;;10.10;6.37;;;;;;;;;;10264918;28;20064;-66
2021/03/09 18:44:55;;;;;;;;;;;;;;;;;;10255965;28;20045;-66
2021/03/09 18:49:52;;;;;;;15.20;7.97;;;;;;;;;;10267471;28;20387;-65
2021/03/09 18:54:50;;;;;;;14.17;5.57;;;;;;;;;;10264609;28;20288;-65
2021/03/09 18:59:47;;;;;;;5.87;4.07;;;;;;;;;;10271597;28;20087;-64
2021/03/09 19:04:44;;;;;;;17.53;8.33;;;;;;;;;;10280695;28;20129;-65
2021/03/09 19:09:42;;;;;;;11.53;5.37;;;;;;;;;;10278955;28;20033;-65
2021/03/09 19:14:39;;;;;;;12.90;5.27;;;;;;;;;;10271762;28;20124;-64
2021/03/09 19:19:37;;;;;;;11.23;4.93;;;;;;;;;;10250556;28;20847;-65
2021/03/09 19:24:34;;;;;;;6.40;4.83;;;;;;;;;;10244297;28;20034;-64
2021/03/09 19:29:32;;;;;;;12.60;4.77;;;;;;;;;;10266325;28;20042;-65
2021/03/09 19:34:29;;;;;;;19.63;8.20;;;;;;;;;;10262917;28;20084;-64
2021/03/09 19:39:26;;;;;;;17.37;8.10;;;;;;;;;;10270432;28;20488;-64
2021/03/09 19:44:24;;;;;;;21.67;7.53;;;;;;;;;;10262336;28;20085;-65
2021/03/09 19:49:21;;;;;;;9.40;4.90;;;;;;;;;;10263216;28;21029;-64
2021/03/09 19:54:19;;;;;;;7.40;4.40;;;;;;;;;;10279117;28;20045;-65
2021/03/09 19:59:16;;;;;;;15.60;7.20;;;;;;;;;;10282653;28;20036;-66
2021/03/09 20:04:14;;;;;;;15.80;7.63;;;;;;;;;;10294948;28;20084;-67
2021/03/09 20:09:11;;;;;;;19.67;9.50;;;;;;;;;;10283151;28;20041;-66
2021/03/09 20:14:10;;;;;;;10.33;5.07;;;;;;;;;;10270768;28;20061;-65
2021/03/09 20:19:07;;;;;;;;;;;;;;;;;;10283700;28;20030;-64
2021/03/09 20:24:05;;;;;;;17.30;7.97;;;;;;;;;;10269466;28;19913;-65
2021/03/09 20:29:02;;;;;;;12.80;6.30;;;;;;;;;;10258796;28;20061;-64
2021/03/09 20:34:02;;;;;;;6.20;2.97;;;;;;;;;;10281027;28;20041;-64
2021/03/09 20:38:59;;;;;;;8.40;3.97;;;;;;;;;;10273676;28;20096;-64
2021/03/09 20:43:57;;;;;;;13.60;4.63;;;;;;;;;;10274420;28;20045;-64
2021/03/09 20:48:54;;;;;;;15.03;7.60;;;;;;;;;;10276885;28;20047;-66
2021/03/09 20:53:52;;;;;;;19.47;8.17;;;;;;;;;;10269447;28;20033;-66
2021/03/09 20:58:49;;;;;;;21.80;7.00;;;;;;;;;;10301266;28;20033;-64
2021/03/09 21:03:46;;;;;;;8.10;4.67;;;;;;;;;;10271131;28;20042;-65
2021/03/09 21:08:44;;;;;;;12.77;5.87;;;;;;;;;;10289553;28;20496;-64
2021/03/09 21:13:42;;;;;;;7.57;5.67;;;;;;;;;;10267355;28;20388;-65
2021/03/09 21:18:40;;;;;;;28.23;5.40;;;;;;;;;;10278603;28;20335;-64
2021/03/09 21:23:37;;;;;;;6.77;3.03;;;;;;;;;;10279554;28;20042;-65
2021/03/09 21:28:35;;;;;;;6.07;5.00;;;;;;;;;;10279356;28;20520;-65
2021/03/09 21:33:32;;;;;;;10.20;4.73;;;;;;;;;;10271854;28;20030;-66
2021/03/09 21:38:30;;;;;;;4.20;3.35;;;;;;;;;;10299497;28;20578;-65
2021/03/09 21:43:28;;;;;;;11.73;5.33;;;;;;;;;;10269083;28;20464;-64
2021/03/09 21:48:25;;;;;;;10.77;4.27;;;;;;;;;;10270894;28;20049;-64
2021/03/09 21:53:22;;;;;;;2.87;2.63;;;;;;;;;;10281502;28;20034;-64
2021/03/09 21:58:20;;;;;;;6.47;3.23;;;;;;;;;;10290888;28;21186;-65
2021/03/09 22:03:17;;;;;;;16.93;5.90;;;;;;;;;;10287286;28;20053;-67
2021/03/09 22:08:14;;;;;;;6.30;3.57;;;;;;;;;;10276165;28;20091;-65
2021/03/09 22:13:12;;;;;;;9.97;6.37;;;;;;;;;;10280458;28;20033;-66
2021/03/09 22:18:10;;;;;;;8.07;4.30;;;;;;;;;;10262436;28;20056;-64
2021/03/09 22:23:08;;;;;;;13.15;4.13;;;;;;;;;;10280967;28;20037;-64
2021/03/09 22:28:05;;;;;;;17.63;4.53;;;;;;;;;;10273629;28;20488;-67
2021/03/09 22:33:02;;;;;;;8.57;4.13;;;;;;;;;;10284300;28;20041;-65
2021/03/09 22:38:00;;;;;;;4.50;2.13;;;;;;;;;;10276021;28;20068;-66
2021/03/09 22:42:58;;;;;;;6.70;5.05;;;;;;;;;;10278071;28;20036;-66
2021/03/09 22:47:55;;;;;;;8.07;3.37;;;;;;;;;;10281182;28;20128;-65
2021/03/09 22:52:53;;;;;;;6.23;3.90;;;;;;;;;;10281870;28;20034;-65
2021/03/09 22:57:50;;;;;;;11.30;5.27;;;;;;;;;;10294512;28;20779;-67
2021/03/09 23:02:47;;;;;;;10.40;4.77;;;;;;;;;;10270695;28;20037;-66
2021/03/09 23:07:45;;;;;;;15.67;7.53;;;;;;;;;;10272082;28;20060;-65
2021/03/09 23:12:42;;;;;;;9.17;4.27;;;;;;;;;;10279961;28;20056;-64
2021/03/09 23:17:40;;;;;;;7.87;4.77;;;;;;;;;;10279761;28;20041;-65
2021/03/09 23:22:38;;;;;;;9.03;5.17;;;;;;;;;;10284542;28;20029;-64
2021/03/09 23:27:36;;;;;;;4.50;3.08;;;;;;;;;;10289023;28;20284;-64
2021/03/09 23:32:34;;;;;;;8.38;4.30;;;;;;;;;;10288921;28;20056;-61
2021/03/09 23:37:31;;;;;;;16.73;6.27;;;;;;;;;;10288406;28;20045;-63
2021/03/09 23:42:29;;;;;;;16.57;6.60;;;;;;;;;;10288908;28;20049;-64
2021/03/09 23:47:26;;;;;;;8.87;4.70;;;;;;;;;;10279970;28;20029;-62
2021/03/09 23:52:24;;;;;;;14.90;5.78;;;;;;;;;;10289001;28;20164;-64
2021/03/09 23:57:22;;;;;;;16.10;4.67;;;;;;;;;;10288857;28;20041;-63
